Genoa, Illinois
Current Conditions -  °F | °C
As of 1:15 PM on Saturday 25 Oct 2014 (Local Time) from KDKB Reporting Station
Clear Clear  
Wind Chill: 68°   Ceiling: Unl
Heat Index: 68°   Visibility: 10mi
Dew Point: 35°   Wind: 14mph
Humidity: 29%   Direction: 300°WNW
Pressure: 29.97"   Gusts: 20mph
Location:  42.1°N, 88.69°W
Report Text: KDKB 251815Z AUTO 30012G17KT 10SM CLR 20/01 A2997 RMK AO2 T02020014
Loading
Personal Weather Stations






























Interactive Weather Map
Tropical Storm Tracking
New forecast layout! Learn more

10-Day Weather Forecast

Advertisements
Track Severe Weather on mobile